Airfield :
LOGIN :

Register | Disclaimer

   EN    FR    IT 

 










Legend :    VFR   Marginal VFR   IFR   Intensive IFR   Very Intensive IFR
Visi :
Ceiling :
>= 8 km
>= 3000ft
5 to 8 km
1000 to 3000 ft
1500m to 5 km
500 to 1000 ft
800 to 1500m
200 to 500 ft
< 800m
< 200 ft
Symbols :   Thunderstorms  Fog  Heavy snow  Heavy precipitations  Wind > 20 kt
SIGMETs :     Misc.  Thunderstorms  Icing  Turbulence  Mountain Waves  Volcanic Ashes







- Airport Elevation : 16 ft
- IATA code : EAS


LESO - San Sebastian Fuenterrabia

CURRENT METAR :
  • 240930Z 36005KT 320V040 CAVOK 19/16 Q1021

EXPIRED METARs :
  • 240900Z 01005KT 330V030 9999 FEW012 18/16 Q1021
  • 240830Z 01003KT 330V040 9999 FEW012 19/16 Q1022
  • 240800Z 00000KT 9999 FEW012 18/15 Q1022
  • 240730Z 00000KT 9999 FEW006 18/15 Q1022
  • 240700Z VRB01KT 9999 FEW003 16/15 Q1022

TAF TAF LESO
Valid from the 24 at 06:00 until the 25 at 06:00 UTC


240500Z 2406/2506 VRB04KT 9999 SCT010 TX26/2416Z TN13/2406Z
PROB30
TEMPO 2406/2407 3000 BR BKN010
TEMPO 2412/2418 03010KT
No reported NOTAMs for that airfield.



MET'MAP, your aeronautical weather chart ! - Copyright ORBIFLY December 2007 - Disclaimer

ORBIFLY MET'MAP TEAM :

Programming & Development : Alexandra Zaïnal
Concept & Development : Baudouin d'Aumeries
Co-Development & Prog : Marc-Olivier Méhu
Technical & hardware support : Manuel Goepfert

Contact : metmap@orbifly.com




SOURCES & CREDITS :

   NOAA